Time;durP1;ratioP1;P1;durP2;ratioP2;P2;SDS_P1;SDS_P2;PMS_P1;PMS_P2;Temp;Humidity;BMP_temperature;BMP_pressure;BME280_temperature;BME280_humidity;BME280_pressure;Samples;Min_cycle;Max_cycle;Signal;HPM_P1;HPM_P2
2023/07/03 00:04:25;;;;;;;6.07;3.58;;;21.60;57.70;;;;;;10332481;28;20042;-56
2023/07/03 00:09:26;;;;;;;6.95;4.03;;;21.60;57.70;;;;;;10290748;28;20553;-57
2023/07/03 00:14:27;;;;;;;8.40;3.80;;;21.60;57.70;;;;;;10290486;28;20055;-57
2023/07/03 00:19:31;;;;;;;6.82;3.63;;;21.60;57.60;;;;;;10304636;28;20023;-61
2023/07/03 00:24:32;;;;;;;4.38;2.90;;;21.60;57.80;;;;;;10315038;28;20046;-57
2023/07/03 00:29:33;;;;;;;7.30;3.53;;;21.60;57.80;;;;;;10315135;28;20110;-58
2023/07/03 00:34:34;;;;;;;7.35;4.25;;;21.60;57.80;;;;;;10311824;28;20118;-56
2023/07/03 00:39:34;;;;;;;6.57;3.92;;;21.50;57.70;;;;;;10339635;28;20958;-56
2023/07/03 00:44:35;;;;;;;5.55;3.08;;;21.50;57.60;;;;;;10311903;28;20113;-58
2023/07/03 00:49:36;;;;;;;13.75;4.47;;;21.60;57.90;;;;;;10308761;28;20109;-57
2023/07/03 00:54:38;;;;;;;8.27;3.03;;;21.50;57.90;;;;;;10313946;28;20038;-57
2023/07/03 00:59:39;;;;;;;9.93;3.65;;;21.50;57.90;;;;;;10323637;28;20023;-57
2023/07/03 01:04:58;;;;;;;5.90;3.03;;;21.50;57.90;;;;;;10344007;28;20085;-57
2023/07/03 01:10:10;;;;;;;6.25;3.72;;;21.50;57.90;;;;;;10326486;28;20045;-58
2023/07/03 01:15:17;;;;;;;5.45;3.20;;;21.50;57.90;;;;;;10310723;28;20035;-57
2023/07/03 01:20:21;;;;;;;6.80;3.55;;;21.50;58.10;;;;;;10328142;28;20081;-57
2023/07/03 01:25:24;;;;;;;7.97;3.30;;;21.50;58.10;;;;;;10318329;28;20409;-57
2023/07/03 01:30:27;;;;;;;7.32;3.88;;;21.50;58.10;;;;;;10312549;28;20084;-58
2023/07/03 01:35:28;;;;;;;6.38;3.42;;;21.50;57.90;;;;;;10323951;28;20028;-57
2023/07/03 01:40:29;;;;;;;5.93;3.47;;;21.50;58.10;;;;;;10323766;28;20010;-58
2023/07/03 01:45:39;;;;;;;5.40;3.92;;;21.50;58.10;;;;;;10296298;28;20410;-57
2023/07/03 01:50:41;;;;;;;7.93;3.50;;;21.50;58.10;;;;;;10312002;28;20059;-57
2023/07/03 01:55:58;;;;;;;7.10;3.22;;;21.50;58.10;;;;;;10304934;28;20105;-56
2023/07/03 02:01:07;;;;;;;6.70;3.42;;;21.50;58.20;;;;;;10315104;28;20528;-57
2023/07/03 02:06:24;;;;;;;9.07;3.95;;;21.50;58.20;;;;;;10341422;28;20092;-56
2023/07/03 02:11:28;;;;;;;6.78;3.17;;;21.40;58.20;;;;;;10313906;28;20145;-57
2023/07/03 02:16:29;;;;;;;8.02;3.30;;;21.40;58.30;;;;;;10303782;28;20021;-58
2023/07/03 02:21:30;;;;;;;5.20;3.00;;;21.40;58.20;;;;;;10337149;28;20046;-57
2023/07/03 02:26:30;;;;;;;6.85;3.75;;;21.40;58.30;;;;;;10287677;28;20077;-57
2023/07/03 02:31:31;;;;;;;6.13;3.22;;;21.40;58.40;;;;;;10304100;28;20037;-57
2023/07/03 02:36:39;;;;;;;7.28;3.47;;;21.40;59.00;;;;;;10317347;28;20030;-57
2023/07/03 02:41:40;;;;;;;6.83;3.53;;;21.40;58.40;;;;;;10323535;28;20042;-57
2023/07/03 02:46:41;;;;;;;6.97;3.65;;;21.40;58.40;;;;;;10297923;28;20114;-56
2023/07/03 02:51:42;;;;;;;7.40;3.67;;;21.40;58.30;;;;;;10309861;28;20045;-57
2023/07/03 02:56:43;;;;;;;9.20;3.00;;;21.40;58.50;;;;;;10297258;28;20042;-57
2023/07/03 03:01:44;;;;;;;8.10;3.20;;;21.40;58.50;;;;;;10339515;28;20102;-56
2023/07/03 03:06:45;;;;;;;6.95;3.00;;;21.40;58.60;;;;;;10339574;28;20026;-57
2023/07/03 03:11:45;;;;;;;5.63;3.05;;;21.40;58.60;;;;;;10309045;28;20115;-57
2023/07/03 03:16:46;;;;;;;6.07;2.88;;;21.40;58.60;;;;;;10284195;28;20165;-57
2023/07/03 03:21:49;;;;;;;6.95;3.28;;;21.40;58.60;;;;;;10298467;28;20043;-57
2023/07/03 03:26:50;;;;;;;7.32;4.47;;;21.40;58.70;;;;;;10296527;28;20165;-57
2023/07/03 03:31:51;;;;;;;7.63;3.38;;;21.40;58.80;;;;;;10287161;28;20092;-58
2023/07/03 03:36:51;;;;;;;6.72;3.38;;;21.40;58.70;;;;;;10318206;28;20532;-57
2023/07/03 03:41:52;;;;;;;6.65;3.65;;;21.40;59.50;;;;;;10308140;28;20048;-57
2023/07/03 03:46:53;;;;;;;7.50;3.67;;;21.40;58.80;;;;;;10340994;28;20017;-56
2023/07/03 03:51:54;;;;;;;9.30;3.65;;;21.40;58.70;;;;;;10322204;28;20114;-57
2023/07/03 03:56:54;;;;;;;8.00;3.40;;;21.40;58.90;;;;;;10324463;28;20102;-57
2023/07/03 04:01:55;;;;;;;5.63;2.92;;;21.40;59.10;;;;;;10323734;28;20026;-57
2023/07/03 04:06:55;;;;;;;7.22;3.85;;;21.50;59.60;;;;;;10324162;28;20023;-57
2023/07/03 04:11:56;;;;;;;5.47;2.88;;;21.50;59.60;;;;;;10325799;28;20054;-57
2023/07/03 04:16:58;;;;;;;7.18;3.05;;;21.50;59.70;;;;;;10345374;28;20097;-57
2023/07/03 04:21:58;;;;;;;8.52;3.45;;;21.40;59.00;;;;;;10343188;28;20054;-56
2023/07/03 04:26:59;;;;;;;9.38;5.18;;;21.40;59.20;;;;;;10342995;28;20029;-57
2023/07/03 04:31:59;;;;;;;10.23;4.93;;;21.40;59.30;;;;;;10326318;28;20066;-57
2023/07/03 04:37:00;;;;;;;9.23;3.50;;;21.40;59.50;;;;;;10342781;28;20067;-57
2023/07/03 04:42:01;;;;;;;11.18;3.67;;;21.30;59.50;;;;;;10323390;28;20054;-57
2023/07/03 04:47:04;;;;;;;13.00;3.58;;;21.40;59.80;;;;;;10319107;28;20021;-57
2023/07/03 04:52:06;;;;;;;6.90;3.08;;;21.30;59.80;;;;;;10329186;28;20492;-56
2023/07/03 04:57:07;;;;;;;12.10;4.55;;;21.40;59.90;;;;;;10326465;28;20030;-56
2023/07/03 05:02:08;;;;;;;6.80;3.42;;;21.40;59.70;;;;;;10306894;28;20030;-56
2023/07/03 05:07:09;;;;;;;9.63;3.63;;;21.40;60.30;;;;;;10303777;28;20676;-56
2023/07/03 05:12:10;;;;;;;6.80;3.60;;;21.40;59.50;;;;;;10288596;28;20131;-56
2023/07/03 05:17:10;;;;;;;11.00;3.88;;;21.30;59.50;;;;;;10321876;28;20014;-56
2023/07/03 05:22:11;;;;;;;9.23;3.88;;;21.40;60.40;;;;;;10321604;28;20142;-56
2023/07/03 05:27:12;;;;;;;11.38;4.13;;;21.50;60.30;;;;;;10321854;28;20355;-56
2023/07/03 05:32:12;;;;;;;8.38;3.53;;;21.50;60.60;;;;;;10290861;28;20058;-55
2023/07/03 05:37:13;;;;;;;11.70;3.45;;;21.50;60.80;;;;;;10325338;28;20026;-56
2023/07/03 05:42:14;;;;;;;19.75;4.55;;;21.60;61.10;;;;;;10323478;28;20541;-56
2023/07/03 05:47:16;;;;;;;15.35;5.60;;;21.70;61.60;;;;;;10311773;28;20110;-57
2023/07/03 05:52:17;;;;;;;19.10;4.80;;;21.60;60.80;;;;;;10312036;28;20027;-58
2023/07/03 05:57:17;;;;;;;10.98;4.78;;;21.70;60.70;;;;;;10301915;28;20102;-59
2023/07/03 06:02:20;;;;;;;22.25;6.00;;;21.60;61.40;;;;;;10309517;28;20117;-58
2023/07/03 06:07:20;;;;;;;31.52;6.40;;;21.70;61.20;;;;;;10319870;28;20054;-55
2023/07/03 06:12:21;;;;;;;22.40;5.45;;;21.70;61.00;;;;;;10312824;28;20062;-57
2023/07/03 06:17:22;;;;;;;37.22;6.88;;;21.70;60.70;;;;;;10328826;28;20069;-58
2023/07/03 06:22:23;;;;;;;23.95;5.80;;;21.60;61.00;;;;;;10319068;28;20401;-58
2023/07/03 06:27:24;;;;;;;20.77;6.35;;;21.60;60.90;;;;;;10321971;28;20073;-58
2023/07/03 06:32:25;;;;;;;20.50;5.70;;;21.60;61.10;;;;;;10337250;28;20036;-58
2023/07/03 06:37:25;;;;;;;23.08;5.97;;;21.60;61.20;;;;;;10323084;28;20021;-58
2023/07/03 06:42:26;;;;;;;23.17;5.22;;;21.60;61.20;;;;;;10302623;28;20109;-58
2023/07/03 06:47:26;;;;;;;19.63;6.10;;;21.60;61.20;;;;;;10302950;28;20118;-59
2023/07/03 06:52:27;;;;;;;20.02;5.90;;;21.60;61.20;;;;;;10281453;28;20074;-59
2023/07/03 06:57:28;;;;;;;19.15;5.43;;;21.60;61.80;;;;;;10282247;28;20098;-59
2023/07/03 07:02:28;;;;;;;14.70;5.00;;;21.70;61.30;;;;;;10312660;28;20329;-60
2023/07/03 07:07:29;;;;;;;18.33;5.15;;;21.70;61.30;;;;;;10322324;28;20093;-59
2023/07/03 07:12:30;;;;;;;12.98;5.35;;;21.70;62.00;;;;;;10332451;28;20284;-59
2023/07/03 07:17:30;;;;;;;12.50;4.15;;;21.70;61.50;;;;;;10320628;28;20096;-59
2023/07/03 07:22:31;;;;;;;12.38;5.22;;;21.70;61.40;;;;;;10308811;28;20399;-59
2023/07/03 07:27:32;;;;;;;15.10;4.93;;;21.70;61.50;;;;;;10310804;28;20027;-60
2023/07/03 07:32:32;;;;;;;17.50;4.40;;;21.70;61.50;;;;;;10300694;28;20145;-60
2023/07/03 07:37:33;;;;;;;19.13;4.80;;;21.80;61.00;;;;;;10292100;28;20125;-59
2023/07/03 07:42:34;;;;;;;15.55;4.63;;;21.80;61.50;;;;;;10307116;28;20509;-59
2023/07/03 07:47:34;;;;;;;22.85;4.82;;;21.90;61.50;;;;;;10299666;28;20023;-58
2023/07/03 07:52:35;;;;;;;17.40;4.78;;;21.80;61.80;;;;;;10310205;28;20231;-58
2023/07/03 07:57:36;;;;;;;16.73;4.38;;;21.90;61.90;;;;;;10306555;28;20015;-59
2023/07/03 08:02:36;;;;;;;11.45;3.90;;;21.90;61.90;;;;;;10309169;28;20117;-58
2023/07/03 08:07:37;;;;;;;16.25;4.32;;;21.90;62.00;;;;;;10303219;28;20089;-58
2023/07/03 08:12:38;;;;;;;20.20;4.78;;;21.90;62.00;;;;;;10319464;28;20110;-59
2023/07/03 08:17:39;;;;;;;10.10;3.67;;;21.90;61.70;;;;;;10306046;28;20102;-59
2023/07/03 08:22:40;;;;;;;12.55;4.40;;;21.90;62.10;;;;;;10316254;28;20051;-57
2023/07/03 08:27:46;;;;;;;13.13;4.88;;;21.90;61.80;;;;;;10331660;28;20049;-57
2023/07/03 08:32:47;;;;;;;11.70;4.85;;;21.90;61.70;;;;;;10298585;28;20033;-57
2023/07/03 08:37:48;;;;;;;11.70;5.78;;;21.80;61.20;;;;;;10325326;28;20053;-57
2023/07/03 08:42:57;;;;;;;11.15;3.72;;;21.70;61.20;;;;;;10301690;28;20033;-58
2023/07/03 08:47:59;;;;;;;8.77;3.35;;;21.70;61.50;;;;;;10306962;28;20077;-57
2023/07/03 08:53:03;;;;;;;13.25;5.07;;;21.70;61.50;;;;;;10325817;28;20041;-57
2023/07/03 08:58:08;;;;;;;12.85;4.20;;;21.70;61.60;;;;;;10328907;28;20046;-57
2023/07/03 09:03:39;;;;;;;8.90;3.60;;;21.70;61.50;;;;;;10342075;28;20026;-56
2023/07/03 09:09:03;;;;;;;19.35;4.80;;;21.70;61.70;;;;;;10326331;28;20109;-58
2023/07/03 09:14:09;;;;;;;14.30;4.05;;;21.80;61.40;;;;;;10341480;28;20516;-58
2023/07/03 09:19:20;;;;;;;13.63;3.90;;;21.80;61.60;;;;;;10329199;28;20030;-59
2023/07/03 09:24:33;;;;;;;11.77;4.18;;;21.90;61.30;;;;;;10311169;28;20521;-58
2023/07/03 09:29:36;;;;;;;7.90;3.90;;;21.90;61.30;;;;;;10339796;28;20291;-58
2023/07/03 09:35:07;;;;;;;16.02;5.70;;;21.90;61.30;;;;;;10340619;28;20397;-58
2023/07/03 09:40:25;;;;;;;17.90;3.40;;;21.90;61.30;;;;;;10302347;28;20027;-58
2023/07/03 09:45:33;;;;;;;15.52;4.00;;;21.90;61.10;;;;;;10319838;28;20026;-58
2023/07/03 09:50:38;;;;;;;23.85;4.93;;;21.90;61.20;;;;;;10323850;28;20267;-58
2023/07/03 09:55:39;;;;;;;16.33;3.60;;;21.90;61.10;;;;;;10308243;28;20102;-58
2023/07/03 10:00:55;;;;;;;13.52;3.88;;;22.00;61.40;;;;;;10303152;28;20109;-60
2023/07/03 10:06:10;;;;;;;17.70;4.30;;;21.90;61.40;;;;;;10314573;28;20060;-58
2023/07/03 10:11:12;;;;;;;21.52;4.32;;;21.90;61.30;;;;;;10287962;28;20033;-57
2023/07/03 10:16:15;;;;;;;14.10;3.67;;;21.90;61.00;;;;;;10322254;28;20035;-58
2023/07/03 10:21:20;;;;;;;15.98;4.00;;;21.90;61.10;;;;;;10338939;28;20461;-58
2023/07/03 10:26:33;;;;;;;14.32;3.78;;;22.00;61.20;;;;;;10315777;28;20018;-58
2023/07/03 10:32:03;;;;;;;11.50;3.58;;;21.90;61.30;;;;;;10332116;28;20037;-59
2023/07/03 10:37:06;;;;;;;13.65;3.42;;;21.90;61.20;;;;;;10315530;28;20118;-58
2023/07/03 10:42:19;;;;;;;14.45;3.28;;;21.90;61.30;;;;;;10321907;28;20045;-59
2023/07/03 10:47:30;;;;;;;12.23;3.35;;;21.90;61.40;;;;;;10296939;28;20027;-59
2023/07/03 10:52:56;;;;;;;11.68;3.50;;;21.90;62.00;;;;;;10300967;28;20080;-59
2023/07/03 10:58:07;;;;;;;18.85;4.03;;;21.90;61.40;;;;;;10315244;28;20062;-58
2023/07/03 11:03:30;;;;;;;12.40;4.30;;;21.80;61.10;;;;;;10284168;28;20556;-58
2023/07/03 11:08:50;;;;;;;12.27;3.95;;;21.80;61.20;;;;;;10304265;28;20037;-59
2023/07/03 11:14:12;;;;;;;14.93;5.03;;;21.80;61.10;;;;;;10332591;28;20046;-59
2023/07/03 11:19:45;;;;;;;16.95;3.45;;;21.80;61.10;;;;;;10281506;28;20019;-59
2023/07/03 11:25:16;;;;;;;17.85;4.25;;;21.80;61.30;;;;;;10293428;28;20047;-58
2023/07/03 11:30:17;;;;;;;16.42;4.10;;;21.70;61.20;;;;;;10287118;28;20023;-58
2023/07/03 11:35:18;;;;;;;14.80;3.38;;;21.80;61.40;;;;;;10315238;28;20385;-59
2023/07/03 11:40:52;;;;;;;8.77;3.60;;;21.80;61.30;;;;;;10304403;28;20046;-57
2023/07/03 11:46:09;;;;;;;31.85;4.93;;;21.80;61.10;;;;;;10312768;28;20026;-58
2023/07/03 11:51:32;;;;;;;13.20;3.95;;;21.80;60.50;;;;;;10298479;28;20571;-58
2023/07/03 11:56:35;;;;;;;11.70;3.20;;;21.80;60.40;;;;;;10315011;28;20564;-58
2023/07/03 12:01:37;;;;;;;9.68;3.10;;;21.80;60.50;;;;;;10324275;28;20018;-58
2023/07/03 12:06:40;;;;;;;9.50;3.05;;;21.70;61.30;;;;;;10300864;28;20054;-58
2023/07/03 12:11:59;;;;;;;6.30;2.72;;;21.70;60.70;;;;;;10328533;28;20461;-58
2023/07/03 12:17:00;;;;;;;11.70;3.17;;;21.70;60.50;;;;;;10310834;28;20030;-62
2023/07/03 12:22:01;;;;;;;10.50;4.07;;;21.70;60.10;;;;;;10326024;28;20137;-57
2023/07/03 12:27:05;;;;;;;11.32;3.17;;;21.80;60.90;;;;;;10322848;28;20097;-57
2023/07/03 12:32:08;;;;;;;13.45;3.40;;;21.90;60.20;;;;;;10327299;28;20041;-57
2023/07/03 12:37:17;;;;;;;23.50;4.57;;;22.00;60.20;;;;;;10325503;28;20437;-57
2023/07/03 12:42:24;;;;;;;12.57;4.65;;;21.90;59.90;;;;;;10325145;28;20026;-58
2023/07/03 12:47:25;;;;;;;17.75;3.55;;;21.90;60.10;;;;;;10316156;28;20030;-57
2023/07/03 12:52:30;;;;;;;12.20;3.10;;;21.90;59.60;;;;;;10341077;28;20060;-57
2023/07/03 12:57:34;;;;;;;15.63;3.10;;;21.90;59.30;;;;;;10321155;28;20026;-56
2023/07/03 13:02:36;;;;;;;19.13;4.05;;;21.90;59.50;;;;;;10323806;28;20018;-57
2023/07/03 13:07:40;;;;;;;17.58;3.75;;;21.90;59.30;;;;;;10314583;28;20030;-57
2023/07/03 13:12:41;;;;;;;19.48;4.18;;;21.80;59.80;;;;;;10309891;28;20042;-57
2023/07/03 13:17:44;;;;;;;16.70;4.43;;;21.90;60.00;;;;;;10340880;28;20023;-57
2023/07/03 13:22:52;;;;;;;19.83;3.63;;;21.90;59.70;;;;;;10325139;28;20050;-56
2023/07/03 13:27:54;;;;;;;16.53;4.10;;;21.90;57.50;;;;;;10337402;28;20113;-57
2023/07/03 13:33:06;;;;;;;17.85;3.13;;;21.80;56.80;;;;;;10307563;28;20146;-58
2023/07/03 13:38:26;;;;;;;15.98;4.30;;;21.80;56.80;;;;;;10323400;28;20041;-57
2023/07/03 13:43:32;;;;;;;12.80;2.72;;;21.80;56.70;;;;;;10324593;28;20098;-57
2023/07/03 13:48:33;;;;;;;17.63;4.63;;;21.80;56.30;;;;;;10313418;28;20022;-57
2023/07/03 13:53:33;;;;;;;12.07;2.60;;;21.80;56.40;;;;;;10289623;28;20066;-57
2023/07/03 13:58:34;;;;;;;11.63;2.92;;;21.90;56.80;;;;;;10312344;28;20018;-57
2023/07/03 14:03:35;;;;;;;10.30;2.70;;;21.80;56.40;;;;;;10312765;28;20035;-57
2023/07/03 14:08:37;;;;;;;7.95;2.15;;;21.80;56.20;;;;;;10314791;28;20030;-59
2023/07/03 14:13:41;;;;;;;18.27;4.05;;;21.70;56.40;;;;;;10308725;28;20038;-58
2023/07/03 14:18:42;;;;;;;20.40;3.47;;;21.90;56.70;;;;;;10328391;28;20023;-58
2023/07/03 14:23:44;;;;;;;11.77;2.70;;;22.00;56.40;;;;;;10307936;28;20149;-59
2023/07/03 14:28:47;;;;;;;11.18;2.17;;;22.00;56.60;;;;;;10299677;28;20019;-57
2023/07/03 14:33:48;;;;;;;13.05;2.70;;;21.90;56.30;;;;;;10307457;28;20026;-58
2023/07/03 14:38:49;;;;;;;12.38;2.97;;;21.90;56.20;;;;;;10314166;28;20029;-57
2023/07/03 14:43:50;;;;;;;11.77;2.50;;;21.80;55.60;;;;;;10313382;28;20038;-57
2023/07/03 14:48:51;;;;;;;12.05;2.38;;;22.00;56.20;;;;;;10317561;28;20037;-57
2023/07/03 14:53:51;;;;;;;16.73;3.30;;;22.00;55.60;;;;;;10307690;28;20026;-56
2023/07/03 14:58:52;;;;;;;11.20;3.40;;;22.10;56.10;;;;;;10320124;28;20158;-58
2023/07/03 15:03:52;;;;;;;21.15;4.47;;;22.00;56.50;;;;;;10321874;28;20822;-57
2023/07/03 15:08:54;;;;;;;96.15;40.92;;;21.90;56.70;;;;;;10306229;28;20077;-56
2023/07/03 15:13:55;;;;;;;79.90;35.85;;;21.90;55.60;;;;;;10317714;28;20027;-58
2023/07/03 15:19:07;;;;;;;65.05;32.28;;;21.80;55.20;;;;;;10291004;28;20116;-59
2023/07/03 15:24:09;;;;;;;80.35;32.17;;;21.90;55.90;;;;;;10286470;28;20457;-56
2023/07/03 15:29:10;;;;;;;67.22;26.00;;;22.00;57.30;;;;;;10309078;28;20321;-58
2023/07/03 15:34:10;;;;;;;62.20;23.08;;;22.20;56.90;;;;;;10321047;28;20031;-57
2023/07/03 15:39:11;;;;;;;59.72;23.55;;;22.30;57.90;;;;;;10322499;28;20515;-56
2023/07/03 15:44:12;;;;;;;51.90;20.85;;;22.40;57.30;;;;;;10326122;28;20354;-57
2023/07/03 15:49:12;;;;;;;48.00;20.40;;;22.50;57.80;;;;;;10294525;28;20109;-56
2023/07/03 15:54:13;;;;;;;58.38;21.83;;;22.50;57.90;;;;;;10305212;28;20096;-57
2023/07/03 15:59:14;;;;;;;56.63;21.13;;;22.60;57.80;;;;;;10319669;28;20080;-57
2023/07/03 16:04:14;;;;;;;47.10;20.38;;;22.50;58.20;;;;;;10333841;28;20118;-57
2023/07/03 16:09:15;;;;;;;51.53;17.90;;;22.50;58.50;;;;;;10323759;28;20022;-57
2023/07/03 16:14:17;;;;;;;56.50;19.65;;;22.50;58.60;;;;;;10327115;28;20436;-57
2023/07/03 16:19:18;;;;;;;46.13;16.05;;;22.50;58.80;;;;;;10317700;28;20035;-57
2023/07/03 16:24:18;;;;;;;45.45;16.88;;;22.30;58.60;;;;;;10316134;28;20073;-57
2023/07/03 16:29:19;;;;;;;48.08;14.80;;;22.20;58.80;;;;;;10328962;28;20062;-57
2023/07/03 16:34:20;;;;;;;36.28;13.77;;;22.10;58.40;;;;;;10329831;28;20033;-57
2023/07/03 16:39:20;;;;;;;28.38;12.40;;;22.00;58.20;;;;;;10344615;28;20022;-57
2023/07/03 16:44:21;;;;;;;28.30;13.55;;;22.00;58.20;;;;;;10322450;28;20386;-57
2023/07/03 16:49:22;;;;;;;29.45;11.88;;;21.90;58.10;;;;;;10323712;28;20105;-57
2023/07/03 16:54:23;;;;;;;25.85;11.32;;;21.90;58.10;;;;;;10294399;28;20122;-56
2023/07/03 16:59:24;;;;;;;26.38;12.30;;;21.90;58.10;;;;;;10319224;28;20085;-57
2023/07/03 17:04:25;;;;;;;26.45;13.38;;;21.90;58.10;;;;;;10293357;28;20368;-57
2023/07/03 17:09:25;;;;;;;27.70;12.55;;;21.90;58.10;;;;;;10323403;28;20022;-57
2023/07/03 17:14:26;;;;;;;26.30;11.07;;;21.80;58.10;;;;;;10327234;28;20058;-54
2023/07/03 17:19:27;;;;;;;24.25;9.85;;;21.80;58.00;;;;;;10301775;28;20508;-57
2023/07/03 17:24:27;;;;;;;19.98;9.43;;;21.80;58.00;;;;;;10316280;28;20056;-57
2023/07/03 17:29:28;;;;;;;21.48;9.15;;;21.80;58.00;;;;;;10314764;28;20051;-58
2023/07/03 17:34:29;;;;;;;24.27;9.77;;;21.80;58.20;;;;;;10308465;28;20121;-57
2023/07/03 17:39:29;;;;;;;17.50;8.40;;;21.80;58.10;;;;;;10334158;28;20050;-57
2023/07/03 17:44:31;;;;;;;20.63;8.52;;;21.80;58.10;;;;;;10325192;28;20118;-57
2023/07/03 17:49:31;;;;;;;17.70;8.80;;;21.70;58.10;;;;;;10324304;28;20245;-57
2023/07/03 17:54:32;;;;;;;18.95;7.55;;;21.70;58.10;;;;;;10341855;28;20165;-57
2023/07/03 17:59:33;;;;;;;14.98;8.77;;;21.70;58.00;;;;;;10340399;28;20130;-57
2023/07/03 18:04:33;;;;;;;15.02;7.65;;;21.70;58.10;;;;;;10321679;28;20422;-55
2023/07/03 18:09:35;;;;;;;17.95;8.30;;;21.70;58.00;;;;;;10319547;28;20135;-57
2023/07/03 18:14:37;;;;;;;16.60;7.82;;;21.70;58.00;;;;;;10325421;28;20033;-57
2023/07/03 18:19:39;;;;;;;13.93;7.20;;;21.60;58.20;;;;;;10340898;28;20733;-58
2023/07/03 18:24:41;;;;;;;16.85;9.90;;;21.60;58.20;;;;;;10336318;28;20044;-57
2023/07/03 18:29:42;;;;;;;26.48;9.23;;;21.60;58.50;;;;;;10306478;28;20015;-57
2023/07/03 18:34:43;;;;;;;15.15;6.93;;;21.60;58.40;;;;;;10340449;28;20081;-59
2023/07/03 18:39:44;;;;;;;17.00;6.82;;;21.70;59.80;;;;;;10292437;28;20080;-57
2023/07/03 18:44:45;;;;;;;17.33;6.20;;;21.70;59.90;;;;;;10308788;28;20095;-57
2023/07/03 18:49:45;;;;;;;15.05;6.03;;;21.80;60.40;;;;;;10305955;28;20415;-57
2023/07/03 18:54:46;;;;;;;15.93;6.53;;;21.80;59.60;;;;;;10308708;28;20126;-57
2023/07/03 18:59:47;;;;;;;15.75;6.22;;;21.80;59.90;;;;;;10309145;28;20093;-58
2023/07/03 19:04:47;;;;;;;13.90;5.90;;;21.80;60.00;;;;;;10319411;28;20101;-58
2023/07/03 19:09:48;;;;;;;15.65;6.90;;;21.80;59.80;;;;;;10310324;28;20493;-58
2023/07/03 19:14:52;;;;;;;15.43;7.40;;;21.70;59.80;;;;;;10322776;28;20129;-58
2023/07/03 19:19:53;;;;;;;12.77;6.75;;;21.70;60.10;;;;;;10324723;28;20050;-57
2023/07/03 19:24:55;;;;;;;13.82;5.97;;;21.60;60.00;;;;;;10301075;28;20033;-58
2023/07/03 19:29:56;;;;;;;13.38;6.60;;;21.60;59.90;;;;;;10307093;28;20023;-57
2023/07/03 19:34:56;;;;;;;12.63;4.63;;;21.60;59.80;;;;;;10312245;28;20039;-58
2023/07/03 19:39:58;;;;;;;9.27;4.65;;;21.50;59.50;;;;;;10309993;28;20109;-56
2023/07/03 19:45:00;;;;;;;12.82;4.78;;;21.50;59.60;;;;;;10314154;28;20370;-56
2023/07/03 19:50:01;;;;;;;12.25;5.22;;;21.50;59.50;;;;;;10304157;28;20034;-56
2023/07/03 19:55:02;;;;;;;9.52;4.30;;;21.50;58.80;;;;;;10305362;28;20101;-56
2023/07/03 20:00:04;;;;;;;8.82;4.18;;;21.50;59.10;;;;;;10307111;28;20046;-58
2023/07/03 20:05:05;;;;;;;8.77;5.30;;;21.50;59.20;;;;;;10308309;28;20026;-56
2023/07/03 20:10:07;;;;;;;7.88;4.13;;;21.50;59.30;;;;;;10335927;28;20062;-56
2023/07/03 20:15:08;;;;;;;9.02;5.03;;;21.50;59.10;;;;;;10336156;28;20551;-57
2023/07/03 20:20:10;;;;;;;7.78;4.00;;;21.50;59.20;;;;;;10337036;28;20050;-56
2023/07/03 20:25:11;;;;;;;8.45;4.22;;;21.50;59.10;;;;;;10328728;28;20018;-57
2023/07/03 20:30:12;;;;;;;9.13;4.10;;;21.40;59.30;;;;;;10343311;28;20052;-55
2023/07/03 20:35:12;;;;;;;9.82;3.58;;;21.40;59.40;;;;;;10326107;28;20520;-58
2023/07/03 20:40:13;;;;;;;7.93;3.80;;;21.40;59.50;;;;;;10337202;28;20102;-58
2023/07/03 20:45:15;;;;;;;9.15;4.47;;;21.40;60.20;;;;;;10310340;28;20018;-57
2023/07/03 20:50:16;;;;;;;8.15;4.25;;;21.40;59.70;;;;;;10341517;28;20022;-56
2023/07/03 20:55:35;;;;;;;7.43;4.05;;;21.40;59.70;;;;;;10309849;28;20119;-58
2023/07/03 21:00:35;;;;;;;6.60;3.72;;;21.40;59.70;;;;;;10308329;28;20018;-58
2023/07/03 21:05:39;;;;;;;9.10;3.75;;;21.40;59.80;;;;;;10340362;28;20110;-57
2023/07/03 21:10:40;;;;;;;6.65;3.33;;;21.40;59.80;;;;;;10340416;28;20431;-58
2023/07/03 21:15:42;;;;;;;7.47;2.85;;;21.40;59.90;;;;;;10324925;28;20034;-57
2023/07/03 21:20:42;;;;;;;5.43;2.70;;;21.30;59.80;;;;;;10323312;28;20046;-58
2023/07/03 21:25:43;;;;;;;6.78;3.55;;;21.30;59.90;;;;;;10339815;28;20385;-55
2023/07/03 21:30:44;;;;;;;6.78;3.70;;;21.30;60.60;;;;;;10323294;28;20121;-57
2023/07/03 21:35:44;;;;;;;7.60;3.72;;;21.40;60.10;;;;;;10324668;28;20105;-58
2023/07/03 21:40:53;;;;;;;7.07;4.10;;;21.40;60.10;;;;;;10330069;28;20095;-58
2023/07/03 21:46:05;;;;;;;7.18;3.83;;;21.40;60.20;;;;;;10309350;28;20022;-58
2023/07/03 21:51:07;;;;;;;7.40;3.13;;;21.30;60.10;;;;;;10341837;28;20436;-57
2023/07/03 21:56:15;;;;;;;7.38;3.60;;;21.30;60.20;;;;;;10341994;28;20058;-57
2023/07/03 22:01:24;;;;;;;7.10;3.00;;;21.30;60.30;;;;;;10341618;28;20014;-58
2023/07/03 22:06:26;;;;;;;5.28;3.20;;;21.30;60.20;;;;;;10341600;28;20053;-58
2023/07/03 22:11:29;;;;;;;7.18;3.30;;;21.30;60.30;;;;;;10341292;28;20026;-57
2023/07/03 22:16:29;;;;;;;6.13;3.05;;;21.30;60.30;;;;;;10324751;28;20065;-57
2023/07/03 22:21:31;;;;;;;5.15;2.80;;;21.30;60.20;;;;;;10341032;28;20602;-57
2023/07/03 22:26:32;;;;;;;5.55;2.90;;;21.30;60.20;;;;;;10325496;28;20019;-57
2023/07/03 22:31:33;;;;;;;5.80;3.03;;;21.30;60.20;;;;;;10340514;28;20023;-57
2023/07/03 22:36:34;;;;;;;6.18;2.65;;;21.20;60.00;;;;;;10324254;28;20085;-58
2023/07/03 22:41:34;;;;;;;6.65;3.28;;;21.30;60.10;;;;;;10308163;28;20010;-57
2023/07/03 22:46:35;;;;;;;7.45;3.20;;;21.30;60.10;;;;;;10304390;28;20026;-57
2023/07/03 22:51:36;;;;;;;4.70;2.67;;;21.30;60.10;;;;;;10325037;28;20015;-58
2023/07/03 22:56:37;;;;;;;3.97;2.90;;;21.20;60.00;;;;;;10339763;28;20018;-58
2023/07/03 23:01:38;;;;;;;4.25;2.35;;;21.20;60.10;;;;;;10300862;28;20219;-58
2023/07/03 23:06:39;;;;;;;5.43;2.60;;;21.20;60.10;;;;;;10312339;28;20032;-58
2023/07/03 23:11:40;;;;;;;5.53;2.83;;;21.20;60.20;;;;;;10339539;28;20026;-58
2023/07/03 23:16:40;;;;;;;5.53;2.60;;;21.20;60.20;;;;;;10339287;28;20692;-58
2023/07/03 23:21:41;;;;;;;4.63;2.42;;;21.20;60.20;;;;;;10339014;28;20125;-58
2023/07/03 23:26:42;;;;;;;4.93;2.70;;;21.20;60.20;;;;;;10324071;28;20737;-58
2023/07/03 23:31:44;;;;;;;6.15;2.20;;;21.20;60.20;;;;;;10339434;28;20106;-57
2023/07/03 23:36:48;;;;;;;4.20;2.20;;;21.20;60.30;;;;;;10324341;28;20034;-57
2023/07/03 23:41:51;;;;;;;5.32;2.88;;;21.20;60.30;;;;;;10320676;28;20101;-58
2023/07/03 23:46:51;;;;;;;6.40;2.67;;;21.20;60.40;;;;;;10283520;28;20054;-58
2023/07/03 23:51:52;;;;;;;5.22;2.55;;;21.20;60.30;;;;;;10310252;28;20027;-57
2023/07/03 23:56:53;;;;;;;4.55;2.63;;;21.20;60.40;;;;;;10342707;28;20034;-57
